パリ/シャルル・ド・ゴール の空港の天気 - METARとTAF

シャルル・ド・ゴール国際空港(パリ) ( LFPG / CDG ) - フランス Paris
飛行場実況気象(Metar)
観測時間05/25 05:00 CEST (05/25 03:00 UTC)
風向・風速北 2m/s
視程6000m
天気現象
なし
気温14℃
湿度88%
気圧1016hPa
METARLFPG 250300Z 36004KT 6000 NSC 14/12 Q1016 TEMPO 0600 BCFG BKN002
過去の天気等 Google飛行場航空写真 Wunderground天気予報

過去48時間のMETAR

飛行場予報(TAF)
発表時間: 5/25 01:00 CEST (5/24 23:00 UTC)
予報対象時間: 25日2時 CEST ~ 26日8時 CEST
風向・風速北北東 3m/s
視程10km以上
なし
25日2時 CEST ~ 25日4時 CEST に徐々に
視程3,000m
天気現象もや
25日6時 CEST ~ 25日8時 CEST に一時的に
視程600m
天気現象散在した霧
全天の8割程度の雲 雲底高度 60m
25日8時 CEST ~ 25日10時 CEST に徐々に
視程8,000m
天気現象運行に影響にある天気現象が終了
なし
25日13時 CEST ~ 25日15時 CEST に徐々に
全天の4割程度の塔状積雲 雲底高度 1,220m
25日16時 CEST ~ 26日1時 CEST に一時的に
視程4,000m
天気現象しゅう雨
25日20時 CEST ~ 25日23時 CEST に 確率 40% で一時的に
風向・風速不定 8m/s 瞬間風速 18m/s
視程2,000m
天気現象雷雨ひょう
全天の4割程度の雲 雲底高度 460m
全天の8割程度の積乱雲 雲底高度 1,220m
TAF LFPG 242300Z 2500/2606 02005KT CAVOK
BECMG 2500/2502 3000 BR
TEMPO 2504/2506 0600 BCFG BKN002
BECMG 2506/2508 8000 NSW NSC
BECMG 2511/2513 SCT040TCU
TEMPO 2514/2523 4000 SHRA
PROB40 TEMPO 2518/2521 VRB15G35KT 2000 TSRAGR SCT015 BKN040CB TX25/2515Z TN13/2503Z